»·PEaware :: N24TT KSMO-KHAF

N24TT :: KSMO-KHAF

FLIGHT INFORMATION

Flight Status: Arrived
Operator: Privately registered:
United States
More flights under this callsign
Pilot: Drew L. (13237)
Aircraft: CESSNA 550 CITATION 2/S2/BRAVO
(C550)
More flights by this aircraft type
Origin: KSMO Santa Monica Mun
United States
Destination: KHAF Half Moon Bay
United States
More flights between these airports :: More routes between these airports
Route: +CTRUS3 STOKD TROXX ARGGG
File this flight plan on PilotEdge
Remarks:
Altitude:
(Current/Filed)
34,000ft
Speed:
(Current/Filed)
250kts
Departed: 07-Sep-20 02:26 PM
Arrived: 07-Sep-20 03:31 PM
Distance/Time
Traveled:
288nm/1:05
Distance/Time
To Go:
Arrived

Flight Plot

Page will automatically refresh every two minutes.

Flight plan parsing failed; only flown route is shown


Map Options




Map Legend


Flown Route
Filed Route
Departure Airport
Arrival Airport
Navaid (VOR, NDB)
Fix

Horizontal Profiles

Position Reports

Time Latitude Longitude Heading Altitude Ground
Speed
07-Sep-20 14:10 34.016713 -118.452161 135 143ft 0kts
07-Sep-20 14:11 34.016713 -118.452161 135 143ft 0kts
07-Sep-20 14:11 34.016713 -118.452161 135 143ft 0kts
07-Sep-20 14:12 34.016713 -118.452161 135 143ft 0kts
07-Sep-20 14:13 34.016713 -118.452161 135 143ft 0kts
07-Sep-20 14:14 34.016713 -118.452161 135 143ft 0kts
07-Sep-20 14:15 34.016713 -118.452161 135 143ft 0kts
07-Sep-20 14:16 34.016713 -118.452161 135 143ft 0kts
07-Sep-20 14:17 34.016713 -118.452161 135 143ft 0kts
07-Sep-20 14:18 34.016713 -118.452161 135 143ft 0kts
07-Sep-20 14:19 34.016713 -118.452161 135 143ft 0kts
07-Sep-20 14:20 34.016713 -118.452161 135 143ft 0kts
07-Sep-20 14:21 34.016713 -118.452161 135 143ft 0kts
07-Sep-20 14:22 34.016456 -118.451810 108 142ft 4kts
07-Sep-20 14:23 34.018794 -118.448909 45 156ft 16kts
07-Sep-20 14:24 34.020990 -118.446070 117 164ft 2kts
07-Sep-20 14:25 34.013253 -118.454475 223 295ft 139kts
07-Sep-20 14:26 33.998091 -118.510197 271 3015ft 236kts
07-Sep-20 14:27 34.000818 -118.594306 273 4020ft 260kts
07-Sep-20 14:28 34.003383 -118.674088 256 8576ft 228kts
07-Sep-20 14:29 33.968409 -118.743019 238 11428ft 255kts
07-Sep-20 14:30 33.928607 -118.823105 260 12022ft 304kts
07-Sep-20 14:31 33.946022 -118.912666 295 15866ft 273kts
07-Sep-20 14:32 33.990458 -118.987029 336 18449ft 286kts
07-Sep-20 14:33 34.071037 -119.001142 353 20832ft 298kts
07-Sep-20 14:34 34.150388 -119.027120 314 22821ft 311kts
07-Sep-20 14:35 34.201485 -119.122778 301 22894ft 353kts
07-Sep-20 14:36 34.250851 -119.219489 302 24987ft 314kts
07-Sep-20 14:37 34.298772 -119.310991 312 26474ft 327kts
07-Sep-20 14:38 34.370676 -119.380008 323 27909ft 334kts
07-Sep-20 14:39 34.445111 -119.449248 322 29140ft 341kts
07-Sep-20 14:40 34.520738 -119.520577 322 30216ft 347kts
07-Sep-20 14:41 34.597623 -119.593388 322 31161ft 353kts
07-Sep-20 14:42 34.675407 -119.667232 322 31985ft 358kts
07-Sep-20 14:43 34.754343 -119.742348 322 32696ft 362kts
07-Sep-20 14:44 34.834230 -119.818564 322 33284ft 367kts
07-Sep-20 14:45 34.914837 -119.895664 322 33817ft 370kts
07-Sep-20 14:46 34.996733 -119.974225 323 33871ft 376kts
07-Sep-20 14:47 35.079784 -120.054029 323 33871ft 380kts
07-Sep-20 14:48 35.162753 -120.134033 323 33874ft 382kts
07-Sep-20 14:49 35.246338 -120.214836 323 33870ft 384kts
07-Sep-20 14:50 35.330254 -120.296176 323 33859ft 385kts
07-Sep-20 14:51 35.414259 -120.377826 323 33874ft 385kts
07-Sep-20 14:52 35.498038 -120.459481 323 33912ft 385kts
07-Sep-20 14:53 35.581770 -120.541311 323 33928ft 385kts
07-Sep-20 14:54 35.665384 -120.623317 323 33928ft 386kts
07-Sep-20 14:55 35.749354 -120.705748 322 33927ft 386kts
07-Sep-20 14:56 35.833276 -120.788468 322 33926ft 386kts
07-Sep-20 14:57 35.917151 -120.871358 322 33926ft 386kts
07-Sep-20 14:58 36.000522 -120.953979 322 33926ft 386kts
07-Sep-20 14:59 36.086002 -121.034741 325 33923ft 386kts
07-Sep-20 15:00 36.171971 -121.114678 324 33912ft 389kts
07-Sep-20 15:01 36.258504 -121.195793 324 33903ft 392kts
07-Sep-20 15:02 36.345283 -121.277497 324 33901ft 394kts
07-Sep-20 15:03 36.432387 -121.359683 324 33901ft 395kts
07-Sep-20 15:04 36.519821 -121.442324 324 33901ft 396kts
07-Sep-20 15:05 36.607153 -121.525335 324 33904ft 396kts
07-Sep-20 15:06 36.694822 -121.608771 324 33900ft 397kts
07-Sep-20 15:07 36.782260 -121.692422 324 33899ft 397kts
07-Sep-20 15:08 36.870188 -121.776523 324 33905ft 396kts
07-Sep-20 15:09 36.937651 -121.875564 283 32926ft 368kts
07-Sep-20 15:10 36.958639 -121.993298 283 30898ft 328kts
07-Sep-20 15:11 36.975714 -122.101093 283 28865ft 301kts
07-Sep-20 15:12 36.990232 -122.201051 283 26838ft 283kts
07-Sep-20 15:13 37.003548 -122.295140 283 24821ft 269kts
07-Sep-20 15:14 37.030230 -122.383037 321 20971ft 303kts
07-Sep-20 15:15 37.094614 -122.442029 345 18094ft 283kts
07-Sep-20 15:16 37.131843 -122.378735 118 15051ft 288kts
07-Sep-20 15:17 37.071750 -122.314306 142 12122ft 281kts
07-Sep-20 15:18 37.042632 -122.233980 85 9343ft 269kts
07-Sep-20 15:19 37.080729 -122.172959 353 6885ft 222kts
07-Sep-20 15:20 37.138721 -122.176541 356 6115ft 211kts
07-Sep-20 15:21 37.197528 -122.184894 332 5318ft 215kts
07-Sep-20 15:22 37.248693 -122.224040 328 4630ft 215kts
07-Sep-20 15:23 37.300707 -122.264646 328 3904ft 218kts
07-Sep-20 15:24 37.350232 -122.310277 318 3907ft 209kts
07-Sep-20 15:25 37.390536 -122.357228 317 3837ft 192kts
07-Sep-20 15:26 37.425883 -122.398536 317 2711ft 139kts
07-Sep-20 15:27 37.449521 -122.426234 316 1965ft 100kts
07-Sep-20 15:28 37.472033 -122.452617 316 1273ft 121kts
07-Sep-20 15:29 37.497137 -122.482060 316 482ft 123kts
07-Sep-20 15:30 37.517085 -122.505436 317 64ft 37kts
07-Sep-20 15:31 37.518340 -122.504344 135 66ft 19kts
07-Sep-20 15:32 37.515024 -122.498838 124 48ft 14kts

Navigation Log

Ident Type
Flight plan parsing failed, navigation log unavailable